sensor_id;sensor_type;location;lat;lon;timestamp;temperature;humidity
7574;DHT22;3828;48.922;9.116;2022-12-07T00:01:18;4.00;99.90
7574;DHT22;3828;48.922;9.116;2022-12-07T00:03:47;3.90;99.90
7574;DHT22;3828;48.922;9.116;2022-12-07T00:06:15;3.90;99.90
7574;DHT22;3828;48.922;9.116;2022-12-07T00:08:44;3.80;99.90
7574;DHT22;3828;48.922;9.116;2022-12-07T00:11:12;5.40;99.90
7574;DHT22;3828;48.922;9.116;2022-12-07T00:13:40;3.80;99.90
7574;DHT22;3828;48.922;9.116;2022-12-07T00:16:09;3.80;99.90
7574;DHT22;3828;48.922;9.116;2022-12-07T00:18:36;3.70;99.90
7574;DHT22;3828;48.922;9.116;2022-12-07T00:21:06;3.70;99.90
7574;DHT22;3828;48.922;9.116;2022-12-07T00:23:33;3.60;99.90
7574;DHT22;3828;48.922;9.116;2022-12-07T00:26:06;3.60;99.90
7574;DHT22;3828;48.922;9.116;2022-12-07T00:28:34;3.60;99.90
7574;DHT22;3828;48.922;9.116;2022-12-07T00:31:05;3.60;99.90
7574;DHT22;3828;48.922;9.116;2022-12-07T00:33:32;3.60;99.90
7574;DHT22;3828;48.922;9.116;2022-12-07T00:36:00;3.50;99.90
7574;DHT22;3828;48.922;9.116;2022-12-07T00:38:28;3.50;99.90
7574;DHT22;3828;48.922;9.116;2022-12-07T00:40:56;3.50;99.90
7574;DHT22;3828;48.922;9.116;2022-12-07T00:43:25;3.50;99.90
7574;DHT22;3828;48.922;9.116;2022-12-07T00:45:52;3.50;99.90
7574;DHT22;3828;48.922;9.116;2022-12-07T00:48:19;3.50;99.90
7574;DHT22;3828;48.922;9.116;2022-12-07T00:50:46;3.50;99.90
7574;DHT22;3828;48.922;9.116;2022-12-07T00:53:13;6.50;99.90
7574;DHT22;3828;48.922;9.116;2022-12-07T00:55:40;3.50;99.90
7574;DHT22;3828;48.922;9.116;2022-12-07T00:58:07;3.50;99.90
7574;DHT22;3828;48.922;9.116;2022-12-07T01:00:38;3.40;99.90
7574;DHT22;3828;48.922;9.116;2022-12-07T01:03:06;3.40;99.90
7574;DHT22;3828;48.922;9.116;2022-12-07T01:05:33;3.40;99.90
7574;DHT22;3828;48.922;9.116;2022-12-07T01:08:00;3.40;99.90
7574;DHT22;3828;48.922;9.116;2022-12-07T01:10:27;3.40;99.90
7574;DHT22;3828;48.922;9.116;2022-12-07T01:12:55;3.40;99.90
7574;DHT22;3828;48.922;9.116;2022-12-07T01:15:22;3.40;99.90
7574;DHT22;3828;48.922;9.116;2022-12-07T01:17:51;3.40;99.90
7574;DHT22;3828;48.922;9.116;2022-12-07T01:20:18;3.50;99.90
7574;DHT22;3828;48.922;9.116;2022-12-07T01:22:45;3.40;99.90
7574;DHT22;3828;48.922;9.116;2022-12-07T01:25:12;3.40;99.90
7574;DHT22;3828;48.922;9.116;2022-12-07T01:27:38;3.50;99.90
7574;DHT22;3828;48.922;9.116;2022-12-07T01:30:06;3.40;99.90
7574;DHT22;3828;48.922;9.116;2022-12-07T01:32:34;3.40;99.90
7574;DHT22;3828;48.922;9.116;2022-12-07T01:35:02;3.50;99.90
7574;DHT22;3828;48.922;9.116;2022-12-07T01:37:34;3.50;99.90
7574;DHT22;3828;48.922;9.116;2022-12-07T01:40:01;3.60;99.90
7574;DHT22;3828;48.922;9.116;2022-12-07T01:42:28;3.60;99.90
7574;DHT22;3828;48.922;9.116;2022-12-07T01:45:34;3.60;99.90
7574;DHT22;3828;48.922;9.116;2022-12-07T01:48:04;3.50;99.90
7574;DHT22;3828;48.922;9.116;2022-12-07T01:50:33;3.60;99.90
7574;DHT22;3828;48.922;9.116;2022-12-07T01:53:04;3.60;99.90
7574;DHT22;3828;48.922;9.116;2022-12-07T01:55:34;3.50;99.90
7574;DHT22;3828;48.922;9.116;2022-12-07T01:58:03;3.50;99.90
7574;DHT22;3828;48.922;9.116;2022-12-07T02:00:30;3.60;99.90
7574;DHT22;3828;48.922;9.116;2022-12-07T02:03:03;3.60;99.90
7574;DHT22;3828;48.922;9.116;2022-12-07T02:05:32;3.70;99.90
7574;DHT22;3828;48.922;9.116;2022-12-07T02:08:00;3.60;99.90
7574;DHT22;3828;48.922;9.116;2022-12-07T02:10:29;3.60;99.90
7574;DHT22;3828;48.922;9.116;2022-12-07T02:12:59;5.40;99.90
7574;DHT22;3828;48.922;9.116;2022-12-07T02:15:32;3.60;99.90
7574;DHT22;3828;48.922;9.116;2022-12-07T02:18:04;3.60;99.90
7574;DHT22;3828;48.922;9.116;2022-12-07T02:20:39;3.60;99.90
7574;DHT22;3828;48.922;9.116;2022-12-07T02:23:38;7.00;99.90
7574;DHT22;3828;48.922;9.116;2022-12-07T02:26:30;3.50;99.90
7574;DHT22;3828;48.922;9.116;2022-12-07T02:29:17;3.60;99.90
7574;DHT22;3828;48.922;9.116;2022-12-07T02:31:48;3.60;99.90
7574;DHT22;3828;48.922;9.116;2022-12-07T02:34:21;3.60;99.90
7574;DHT22;3828;48.922;9.116;2022-12-07T02:36:54;3.60;99.90
7574;DHT22;3828;48.922;9.116;2022-12-07T02:39:27;3.70;99.90
7574;DHT22;3828;48.922;9.116;2022-12-07T02:41:58;3.60;99.90
7574;DHT22;3828;48.922;9.116;2022-12-07T02:44:30;3.60;99.90
7574;DHT22;3828;48.922;9.116;2022-12-07T02:47:01;3.60;99.90
7574;DHT22;3828;48.922;9.116;2022-12-07T02:49:29;3.60;99.90
7574;DHT22;3828;48.922;9.116;2022-12-07T02:51:56;3.60;99.90
7574;DHT22;3828;48.922;9.116;2022-12-07T02:54:23;3.60;99.90
7574;DHT22;3828;48.922;9.116;2022-12-07T02:56:53;4.60;99.90
7574;DHT22;3828;48.922;9.116;2022-12-07T02:59:35;3.60;99.90
7574;DHT22;3828;48.922;9.116;2022-12-07T03:02:18;3.50;99.90
7574;DHT22;3828;48.922;9.116;2022-12-07T03:04:53;3.50;99.90
7574;DHT22;3828;48.922;9.116;2022-12-07T03:07:30;3.50;99.90
7574;DHT22;3828;48.922;9.116;2022-12-07T03:10:05;3.50;99.90
7574;DHT22;3828;48.922;9.116;2022-12-07T03:12:43;3.40;99.90
7574;DHT22;3828;48.922;9.116;2022-12-07T03:15:16;3.40;99.90
7574;DHT22;3828;48.922;9.116;2022-12-07T03:17:46;-0.30;99.90
7574;DHT22;3828;48.922;9.116;2022-12-07T03:20:19;3.40;99.90
7574;DHT22;3828;48.922;9.116;2022-12-07T03:22:47;3.30;99.90
7574;DHT22;3828;48.922;9.116;2022-12-07T03:25:16;3.40;99.90
7574;DHT22;3828;48.922;9.116;2022-12-07T03:27:47;3.40;99.90
7574;DHT22;3828;48.922;9.116;2022-12-07T03:30:19;3.40;99.90
7574;DHT22;3828;48.922;9.116;2022-12-07T03:32:50;3.30;99.90
7574;DHT22;3828;48.922;9.116;2022-12-07T03:35:20;3.30;99.90
7574;DHT22;3828;48.922;9.116;2022-12-07T03:37:52;3.30;99.90
7574;DHT22;3828;48.922;9.116;2022-12-07T03:40:26;3.20;99.90
7574;DHT22;3828;48.922;9.116;2022-12-07T03:42:56;3.10;99.90
7574;DHT22;3828;48.922;9.116;2022-12-07T03:45:30;3.00;99.90
7574;DHT22;3828;48.922;9.116;2022-12-07T03:48:03;3.00;99.90
7574;DHT22;3828;48.922;9.116;2022-12-07T03:50:38;3.10;99.90
7574;DHT22;3828;48.922;9.116;2022-12-07T03:53:12;3.10;99.90
7574;DHT22;3828;48.922;9.116;2022-12-07T03:55:43;3.10;99.90
7574;DHT22;3828;48.922;9.116;2022-12-07T03:58:12;3.10;99.90
7574;DHT22;3828;48.922;9.116;2022-12-07T04:00:42;3.10;99.90
7574;DHT22;3828;48.922;9.116;2022-12-07T04:03:09;3.10;99.90
7574;DHT22;3828;48.922;9.116;2022-12-07T04:05:36;3.10;99.90
7574;DHT22;3828;48.922;9.116;2022-12-07T04:08:03;3.10;99.90
7574;DHT22;3828;48.922;9.116;2022-12-07T04:10:30;3.00;99.90
7574;DHT22;3828;48.922;9.116;2022-12-07T04:12:56;5.90;99.90
7574;DHT22;3828;48.922;9.116;2022-12-07T04:15:23;3.10;99.90
7574;DHT22;3828;48.922;9.116;2022-12-07T04:17:51;6.00;99.90
7574;DHT22;3828;48.922;9.116;2022-12-07T04:20:19;3.00;99.90
7574;DHT22;3828;48.922;9.116;2022-12-07T04:22:46;3.00;99.90
7574;DHT22;3828;48.922;9.116;2022-12-07T04:25:13;3.00;99.90
7574;DHT22;3828;48.922;9.116;2022-12-07T04:27:40;3.70;99.90
7574;DHT22;3828;48.922;9.116;2022-12-07T04:30:07;3.00;99.90
7574;DHT22;3828;48.922;9.116;2022-12-07T04:32:34;3.00;99.90
7574;DHT22;3828;48.922;9.116;2022-12-07T04:35:03;3.10;99.90
7574;DHT22;3828;48.922;9.116;2022-12-07T04:37:30;3.00;99.90
7574;DHT22;3828;48.922;9.116;2022-12-07T04:39:56;3.00;99.90
7574;DHT22;3828;48.922;9.116;2022-12-07T04:42:23;3.10;99.90
7574;DHT22;3828;48.922;9.116;2022-12-07T04:44:50;3.00;99.90
7574;DHT22;3828;48.922;9.116;2022-12-07T04:47:17;3.00;99.90
7574;DHT22;3828;48.922;9.116;2022-12-07T04:49:44;2.90;99.90
7574;DHT22;3828;48.922;9.116;2022-12-07T04:52:12;2.90;99.90
7574;DHT22;3828;48.922;9.116;2022-12-07T04:54:38;2.90;99.90
7574;DHT22;3828;48.922;9.116;2022-12-07T04:57:05;3.00;99.90
7574;DHT22;3828;48.922;9.116;2022-12-07T04:59:32;2.80;99.90
7574;DHT22;3828;48.922;9.116;2022-12-07T05:01:59;2.70;99.90
7574;DHT22;3828;48.922;9.116;2022-12-07T05:04:25;2.70;99.90
7574;DHT22;3828;48.922;9.116;2022-12-07T05:06:52;2.60;99.90
7574;DHT22;3828;48.922;9.116;2022-12-07T05:09:20;2.50;99.90
7574;DHT22;3828;48.922;9.116;2022-12-07T05:11:47;2.40;99.90
7574;DHT22;3828;48.922;9.116;2022-12-07T05:14:16;2.40;99.90
7574;DHT22;3828;48.922;9.116;2022-12-07T05:16:44;2.30;99.90
7574;DHT22;3828;48.922;9.116;2022-12-07T05:19:11;2.30;99.90
7574;DHT22;3828;48.922;9.116;2022-12-07T05:21:39;2.30;99.90
7574;DHT22;3828;48.922;9.116;2022-12-07T05:24:07;2.20;99.90
7574;DHT22;3828;48.922;9.116;2022-12-07T05:26:36;2.20;99.90
7574;DHT22;3828;48.922;9.116;2022-12-07T05:29:03;2.20;99.90
7574;DHT22;3828;48.922;9.116;2022-12-07T05:31:31;2.20;99.90
7574;DHT22;3828;48.922;9.116;2022-12-07T05:33:58;2.30;99.90
7574;DHT22;3828;48.922;9.116;2022-12-07T05:36:24;2.30;99.90
7574;DHT22;3828;48.922;9.116;2022-12-07T05:38:54;2.40;99.90
7574;DHT22;3828;48.922;9.116;2022-12-07T05:41:20;2.50;99.90
7574;DHT22;3828;48.922;9.116;2022-12-07T05:44:06;4.30;99.90
7574;DHT22;3828;48.922;9.116;2022-12-07T05:46:33;2.70;99.90
7574;DHT22;3828;48.922;9.116;2022-12-07T05:49:00;2.80;99.90
7574;DHT22;3828;48.922;9.116;2022-12-07T05:51:27;2.80;99.90
7574;DHT22;3828;48.922;9.116;2022-12-07T05:53:54;2.80;99.90
7574;DHT22;3828;48.922;9.116;2022-12-07T05:56:20;2.70;99.90
7574;DHT22;3828;48.922;9.116;2022-12-07T05:58:48;2.80;99.90
7574;DHT22;3828;48.922;9.116;2022-12-07T06:01:33;2.80;99.90
7574;DHT22;3828;48.922;9.116;2022-12-07T06:04:00;2.90;99.90
7574;DHT22;3828;48.922;9.116;2022-12-07T06:06:27;2.90;99.90
7574;DHT22;3828;48.922;9.116;2022-12-07T06:08:53;3.00;99.90
7574;DHT22;3828;48.922;9.116;2022-12-07T06:11:20;3.00;99.90
7574;DHT22;3828;48.922;9.116;2022-12-07T06:14:04;3.00;99.90
7574;DHT22;3828;48.922;9.116;2022-12-07T06:16:32;3.00;99.90
7574;DHT22;3828;48.922;9.116;2022-12-07T06:18:59;3.10;99.90
7574;DHT22;3828;48.922;9.116;2022-12-07T06:21:26;3.20;99.90
7574;DHT22;3828;48.922;9.116;2022-12-07T06:23:53;3.30;99.90
7574;DHT22;3828;48.922;9.116;2022-12-07T06:26:20;3.30;99.90
7574;DHT22;3828;48.922;9.116;2022-12-07T06:28:46;3.20;99.90
7574;DHT22;3828;48.922;9.116;2022-12-07T06:31:13;3.20;99.90
7574;DHT22;3828;48.922;9.116;2022-12-07T06:33:42;6.40;99.90
7574;DHT22;3828;48.922;9.116;2022-12-07T06:36:09;3.20;99.90
7574;DHT22;3828;48.922;9.116;2022-12-07T06:38:36;3.20;99.90
7574;DHT22;3828;48.922;9.116;2022-12-07T06:41:03;3.20;99.90
7574;DHT22;3828;48.922;9.116;2022-12-07T06:43:30;3.20;99.90
7574;DHT22;3828;48.922;9.116;2022-12-07T06:45:57;3.20;99.90
7574;DHT22;3828;48.922;9.116;2022-12-07T06:48:23;6.60;99.90
7574;DHT22;3828;48.922;9.116;2022-12-07T06:50:52;3.10;99.90
7574;DHT22;3828;48.922;9.116;2022-12-07T06:53:19;4.50;99.90
7574;DHT22;3828;48.922;9.116;2022-12-07T06:55:45;3.10;99.90
7574;DHT22;3828;48.922;9.116;2022-12-07T06:58:12;4.50;99.90
7574;DHT22;3828;48.922;9.116;2022-12-07T07:00:39;3.20;99.90
7574;DHT22;3828;48.922;9.116;2022-12-07T07:03:06;3.30;99.90
7574;DHT22;3828;48.922;9.116;2022-12-07T07:05:32;3.30;99.90
7574;DHT22;3828;48.922;9.116;2022-12-07T07:08:00;3.20;99.90
7574;DHT22;3828;48.922;9.116;2022-12-07T07:10:28;3.20;99.90
7574;DHT22;3828;48.922;9.116;2022-12-07T07:12:54;3.20;99.90
7574;DHT22;3828;48.922;9.116;2022-12-07T07:15:21;3.10;99.90
7574;DHT22;3828;48.922;9.116;2022-12-07T07:17:48;3.10;99.90
7574;DHT22;3828;48.922;9.116;2022-12-07T07:20:15;3.30;99.90
7574;DHT22;3828;48.922;9.116;2022-12-07T07:22:41;3.30;99.90
7574;DHT22;3828;48.922;9.116;2022-12-07T07:25:10;3.40;99.90
7574;DHT22;3828;48.922;9.116;2022-12-07T07:27:36;3.40;99.90
7574;DHT22;3828;48.922;9.116;2022-12-07T07:30:04;3.30;99.90
7574;DHT22;3828;48.922;9.116;2022-12-07T07:32:31;3.30;99.90
7574;DHT22;3828;48.922;9.116;2022-12-07T07:34:58;3.40;99.90
7574;DHT22;3828;48.922;9.116;2022-12-07T07:37:25;3.40;99.90
7574;DHT22;3828;48.922;9.116;2022-12-07T07:39:52;3.40;99.90
7574;DHT22;3828;48.922;9.116;2022-12-07T07:42:20;3.30;99.90
7574;DHT22;3828;48.922;9.116;2022-12-07T07:44:47;3.50;99.90
7574;DHT22;3828;48.922;9.116;2022-12-07T07:47:14;3.60;99.90
7574;DHT22;3828;48.922;9.116;2022-12-07T07:49:41;3.60;99.90
7574;DHT22;3828;48.922;9.116;2022-12-07T07:52:07;3.60;99.90
7574;DHT22;3828;48.922;9.116;2022-12-07T07:54:34;3.60;99.90
7574;DHT22;3828;48.922;9.116;2022-12-07T07:57:01;3.70;99.90
7574;DHT22;3828;48.922;9.116;2022-12-07T07:59:29;3.60;99.90
7574;DHT22;3828;48.922;9.116;2022-12-07T08:01:56;3.60;99.90
7574;DHT22;3828;48.922;9.116;2022-12-07T08:04:23;3.80;99.90
7574;DHT22;3828;48.922;9.116;2022-12-07T08:06:50;3.80;99.90
7574;DHT22;3828;48.922;9.116;2022-12-07T08:09:16;4.00;99.90
7574;DHT22;3828;48.922;9.116;2022-12-07T08:11:43;4.00;99.90
7574;DHT22;3828;48.922;9.116;2022-12-07T08:14:10;4.10;99.90
7574;DHT22;3828;48.922;9.116;2022-12-07T08:16:39;4.10;99.90
7574;DHT22;3828;48.922;9.116;2022-12-07T08:19:06;4.00;99.90
7574;DHT22;3828;48.922;9.116;2022-12-07T08:21:32;4.10;99.90
7574;DHT22;3828;48.922;9.116;2022-12-07T08:23:59;4.10;99.90
7574;DHT22;3828;48.922;9.116;2022-12-07T08:26:26;4.10;99.90
7574;DHT22;3828;48.922;9.116;2022-12-07T08:28:53;4.70;99.90
7574;DHT22;3828;48.922;9.116;2022-12-07T08:31:19;4.30;99.90
7574;DHT22;3828;48.922;9.116;2022-12-07T08:33:48;4.30;99.90
7574;DHT22;3828;48.922;9.116;2022-12-07T08:36:16;4.40;99.90
7574;DHT22;3828;48.922;9.116;2022-12-07T08:38:43;4.50;99.90
7574;DHT22;3828;48.922;9.116;2022-12-07T08:41:10;4.60;99.90
7574;DHT22;3828;48.922;9.116;2022-12-07T08:43:37;4.60;99.90
7574;DHT22;3828;48.922;9.116;2022-12-07T08:46:07;4.70;99.90
7574;DHT22;3828;48.922;9.116;2022-12-07T08:48:37;4.70;99.90
7574;DHT22;3828;48.922;9.116;2022-12-07T08:51:07;4.80;99.90
7574;DHT22;3828;48.922;9.116;2022-12-07T08:53:34;4.90;99.90
7574;DHT22;3828;48.922;9.116;2022-12-07T08:56:01;7.40;99.90
7574;DHT22;3828;48.922;9.116;2022-12-07T08:58:28;7.50;99.90
7574;DHT22;3828;48.922;9.116;2022-12-07T09:00:55;5.00;99.90
7574;DHT22;3828;48.922;9.116;2022-12-07T09:03:22;5.00;99.90
7574;DHT22;3828;48.922;9.116;2022-12-07T09:05:48;5.10;99.90
7574;DHT22;3828;48.922;9.116;2022-12-07T09:08:17;5.30;99.90
7574;DHT22;3828;48.922;9.116;2022-12-07T09:10:43;5.30;99.90
7574;DHT22;3828;48.922;9.116;2022-12-07T09:13:10;8.30;99.90
7574;DHT22;3828;48.922;9.116;2022-12-07T09:15:37;5.30;99.90
7574;DHT22;3828;48.922;9.116;2022-12-07T09:18:04;5.20;99.90
7574;DHT22;3828;48.922;9.116;2022-12-07T09:20:31;5.90;99.90
7574;DHT22;3828;48.922;9.116;2022-12-07T09:22:57;5.10;99.90
7574;DHT22;3828;48.922;9.116;2022-12-07T09:25:26;5.20;99.90
7574;DHT22;3828;48.922;9.116;2022-12-07T09:27:55;5.10;99.90
7574;DHT22;3828;48.922;9.116;2022-12-07T09:30:23;5.30;99.90
7574;DHT22;3828;48.922;9.116;2022-12-07T09:33:02;5.20;99.90
7574;DHT22;3828;48.922;9.116;2022-12-07T09:35:43;5.20;99.90
7574;DHT22;3828;48.922;9.116;2022-12-07T09:38:10;5.10;99.90
7574;DHT22;3828;48.922;9.116;2022-12-07T09:40:39;5.10;99.90
7574;DHT22;3828;48.922;9.116;2022-12-07T09:43:12;5.10;99.90
7574;DHT22;3828;48.922;9.116;2022-12-07T09:45:42;5.10;99.90
7574;DHT22;3828;48.922;9.116;2022-12-07T09:48:16;5.10;99.90
7574;DHT22;3828;48.922;9.116;2022-12-07T09:50:44;5.10;99.90
7574;DHT22;3828;48.922;9.116;2022-12-07T09:53:16;5.20;99.90
7574;DHT22;3828;48.922;9.116;2022-12-07T09:55:45;5.20;99.90
7574;DHT22;3828;48.922;9.116;2022-12-07T09:58:17;5.20;99.90
7574;DHT22;3828;48.922;9.116;2022-12-07T10:00:44;9.00;99.90
7574;DHT22;3828;48.922;9.116;2022-12-07T10:03:12;5.10;99.90
7574;DHT22;3828;48.922;9.116;2022-12-07T10:05:42;5.20;99.90
7574;DHT22;3828;48.922;9.116;2022-12-07T10:08:11;6.20;99.90
7574;DHT22;3828;48.922;9.116;2022-12-07T10:10:39;7.10;99.90
7574;DHT22;3828;48.922;9.116;2022-12-07T10:13:09;5.20;99.90
7574;DHT22;3828;48.922;9.116;2022-12-07T10:15:45;6.00;99.90
7574;DHT22;3828;48.922;9.116;2022-12-07T10:18:30;5.40;99.90
7574;DHT22;3828;48.922;9.116;2022-12-07T10:21:05;5.60;99.90
7574;DHT22;3828;48.922;9.116;2022-12-07T10:23:34;5.50;99.90
7574;DHT22;3828;48.922;9.116;2022-12-07T10:26:20;5.50;99.90
7574;DHT22;3828;48.922;9.116;2022-12-07T10:28:49;5.70;99.90
7574;DHT22;3828;48.922;9.116;2022-12-07T10:31:18;5.60;99.90
7574;DHT22;3828;48.922;9.116;2022-12-07T10:33:50;5.60;99.90
7574;DHT22;3828;48.922;9.116;2022-12-07T10:36:21;5.60;99.90
7574;DHT22;3828;48.922;9.116;2022-12-07T10:38:50;5.40;99.90
7574;DHT22;3828;48.922;9.116;2022-12-07T10:41:17;8.20;99.90
7574;DHT22;3828;48.922;9.116;2022-12-07T10:43:52;5.40;99.90
7574;DHT22;3828;48.922;9.116;2022-12-07T10:49:35;5.90;99.90
7574;DHT22;3828;48.922;9.116;2022-12-07T10:52:10;6.00;99.90
7574;DHT22;3828;48.922;9.116;2022-12-07T10:54:47;6.10;99.90
7574;DHT22;3828;48.922;9.116;2022-12-07T10:57:47;6.00;99.90
7574;DHT22;3828;48.922;9.116;2022-12-07T11:00:21;5.80;99.90
7574;DHT22;3828;48.922;9.116;2022-12-07T11:03:23;5.70;99.90
7574;DHT22;3828;48.922;9.116;2022-12-07T11:06:10;5.50;99.90
7574;DHT22;3828;48.922;9.116;2022-12-07T11:11:47;5.20;99.90
7574;DHT22;3828;48.922;9.116;2022-12-07T11:14:20;8.60;99.90
7574;DHT22;3828;48.922;9.116;2022-12-07T11:16:55;4.90;99.90
7574;DHT22;3828;48.922;9.116;2022-12-07T11:19:34;4.90;99.90
7574;DHT22;3828;48.922;9.116;2022-12-07T11:22:11;4.90;99.90
7574;DHT22;3828;48.922;9.116;2022-12-07T11:24:49;8.10;99.90
7574;DHT22;3828;48.922;9.116;2022-12-07T11:27:24;9.00;99.90
7574;DHT22;3828;48.922;9.116;2022-12-07T11:30:02;5.10;99.90
7574;DHT22;3828;48.922;9.116;2022-12-07T11:32:46;8.60;99.90
7574;DHT22;3828;48.922;9.116;2022-12-07T11:35:24;5.30;99.90
7574;DHT22;3828;48.922;9.116;2022-12-07T11:37:58;6.30;99.90
7574;DHT22;3828;48.922;9.116;2022-12-07T11:40:29;6.60;99.90
7574;DHT22;3828;48.922;9.116;2022-12-07T11:43:02;6.20;99.90
7574;DHT22;3828;48.922;9.116;2022-12-07T11:45:32;8.80;99.90
7574;DHT22;3828;48.922;9.116;2022-12-07T11:48:02;7.10;99.90
7574;DHT22;3828;48.922;9.116;2022-12-07T11:50:34;9.80;99.90
7574;DHT22;3828;48.922;9.116;2022-12-07T11:53:10;8.30;99.90
7574;DHT22;3828;48.922;9.116;2022-12-07T11:55:44;9.80;99.90
7574;DHT22;3828;48.922;9.116;2022-12-07T12:01:10;6.40;99.90
7574;DHT22;3828;48.922;9.116;2022-12-07T12:03:42;6.20;99.90
7574;DHT22;3828;48.922;9.116;2022-12-07T12:06:10;6.10;99.90
7574;DHT22;3828;48.922;9.116;2022-12-07T12:08:41;6.00;99.90
7574;DHT22;3828;48.922;9.116;2022-12-07T12:11:18;6.00;99.90
7574;DHT22;3828;48.922;9.116;2022-12-07T12:14:01;6.00;99.90
7574;DHT22;3828;48.922;9.116;2022-12-07T12:16:48;5.90;99.90
7574;DHT22;3828;48.922;9.116;2022-12-07T12:19:27;5.80;99.90
7574;DHT22;3828;48.922;9.116;2022-12-07T12:22:05;5.80;99.90
7574;DHT22;3828;48.922;9.116;2022-12-07T12:24:34;5.70;99.90
7574;DHT22;3828;48.922;9.116;2022-12-07T12:27:05;5.70;99.90
7574;DHT22;3828;48.922;9.116;2022-12-07T12:29:34;5.50;99.90
7574;DHT22;3828;48.922;9.116;2022-12-07T12:32:07;8.10;99.90
7574;DHT22;3828;48.922;9.116;2022-12-07T12:34:41;5.30;99.90
7574;DHT22;3828;48.922;9.116;2022-12-07T12:37:39;5.30;99.90
7574;DHT22;3828;48.922;9.116;2022-12-07T12:40:42;5.30;99.90
7574;DHT22;3828;48.922;9.116;2022-12-07T12:43:48;5.30;99.90
7574;DHT22;3828;48.922;9.116;2022-12-07T12:46:38;5.30;99.90
7574;DHT22;3828;48.922;9.116;2022-12-07T12:49:39;5.30;99.90
7574;DHT22;3828;48.922;9.116;2022-12-07T12:58:39;5.20;99.90
7574;DHT22;3828;48.922;9.116;2022-12-07T13:07:48;5.10;99.90
7574;DHT22;3828;48.922;9.116;2022-12-07T13:10:21;5.10;99.90
7574;DHT22;3828;48.922;9.116;2022-12-07T13:12:56;5.10;99.90
7574;DHT22;3828;48.922;9.116;2022-12-07T13:15:33;5.10;99.90
7574;DHT22;3828;48.922;9.116;2022-12-07T13:20:54;5.20;99.90
7574;DHT22;3828;48.922;9.116;2022-12-07T13:23:33;5.20;99.90
7574;DHT22;3828;48.922;9.116;2022-12-07T13:28:51;5.20;99.90
7574;DHT22;3828;48.922;9.116;2022-12-07T13:31:35;5.20;99.90
7574;DHT22;3828;48.922;9.116;2022-12-07T13:34:05;5.20;99.90
7574;DHT22;3828;48.922;9.116;2022-12-07T13:36:34;5.20;99.90
7574;DHT22;3828;48.922;9.116;2022-12-07T13:39:19;5.30;99.90
7574;DHT22;3828;48.922;9.116;2022-12-07T13:41:51;5.30;99.90
7574;DHT22;3828;48.922;9.116;2022-12-07T13:44:19;5.40;99.90
7574;DHT22;3828;48.922;9.116;2022-12-07T13:46:52;5.30;99.90
7574;DHT22;3828;48.922;9.116;2022-12-07T13:49:23;5.40;99.90
7574;DHT22;3828;48.922;9.116;2022-12-07T13:51:51;5.30;99.90
7574;DHT22;3828;48.922;9.116;2022-12-07T13:54:20;5.30;99.90
7574;DHT22;3828;48.922;9.116;2022-12-07T13:56:49;5.30;99.90
7574;DHT22;3828;48.922;9.116;2022-12-07T13:59:19;5.30;99.90
7574;DHT22;3828;48.922;9.116;2022-12-07T14:01:47;5.30;99.90
7574;DHT22;3828;48.922;9.116;2022-12-07T14:04:33;5.20;99.90
7574;DHT22;3828;48.922;9.116;2022-12-07T14:07:15;5.10;99.90
7574;DHT22;3828;48.922;9.116;2022-12-07T14:09:57;6.90;99.90
7574;DHT22;3828;48.922;9.116;2022-12-07T14:12:26;5.00;99.90
7574;DHT22;3828;48.922;9.116;2022-12-07T14:14:54;5.00;99.90
7574;DHT22;3828;48.922;9.116;2022-12-07T14:17:23;5.00;99.90
7574;DHT22;3828;48.922;9.116;2022-12-07T14:19:52;5.00;99.90
7574;DHT22;3828;48.922;9.116;2022-12-07T14:22:27;8.30;99.90
7574;DHT22;3828;48.922;9.116;2022-12-07T14:25:16;4.90;99.90
7574;DHT22;3828;48.922;9.116;2022-12-07T14:27:52;4.80;99.90
7574;DHT22;3828;48.922;9.116;2022-12-07T14:30:21;4.80;99.90
7574;DHT22;3828;48.922;9.116;2022-12-07T14:32:52;4.70;99.90
7574;DHT22;3828;48.922;9.116;2022-12-07T14:35:19;4.80;99.90
7574;DHT22;3828;48.922;9.116;2022-12-07T14:37:47;4.80;99.90
7574;DHT22;3828;48.922;9.116;2022-12-07T14:40:18;7.30;99.90
7574;DHT22;3828;48.922;9.116;2022-12-07T14:42:46;5.10;99.90
7574;DHT22;3828;48.922;9.116;2022-12-07T14:45:16;4.80;99.90
7574;DHT22;3828;48.922;9.116;2022-12-07T14:47:43;4.80;99.90
7574;DHT22;3828;48.922;9.116;2022-12-07T14:50:12;4.70;99.90
7574;DHT22;3828;48.922;9.116;2022-12-07T14:52:40;4.80;99.90
7574;DHT22;3828;48.922;9.116;2022-12-07T14:55:14;6.00;99.90
7574;DHT22;3828;48.922;9.116;2022-12-07T14:57:42;4.70;99.90
7574;DHT22;3828;48.922;9.116;2022-12-07T15:00:13;4.60;99.90
7574;DHT22;3828;48.922;9.116;2022-12-07T15:02:40;4.50;99.90
7574;DHT22;3828;48.922;9.116;2022-12-07T15:05:08;4.90;99.90
7574;DHT22;3828;48.922;9.116;2022-12-07T15:07:35;4.40;99.90
7574;DHT22;3828;48.922;9.116;2022-12-07T15:10:02;4.40;99.90
7574;DHT22;3828;48.922;9.116;2022-12-07T15:12:29;4.30;99.90
7574;DHT22;3828;48.922;9.116;2022-12-07T15:14:57;7.20;99.90
7574;DHT22;3828;48.922;9.116;2022-12-07T15:17:24;4.20;99.90
7574;DHT22;3828;48.922;9.116;2022-12-07T15:19:51;4.20;99.90
7574;DHT22;3828;48.922;9.116;2022-12-07T15:22:17;4.10;99.90
7574;DHT22;3828;48.922;9.116;2022-12-07T15:24:44;4.10;99.90
7574;DHT22;3828;48.922;9.116;2022-12-07T15:27:11;4.10;99.90
7574;DHT22;3828;48.922;9.116;2022-12-07T15:29:38;4.20;99.90
7574;DHT22;3828;48.922;9.116;2022-12-07T15:32:06;4.20;99.90
7574;DHT22;3828;48.922;9.116;2022-12-07T15:34:33;4.20;99.90
7574;DHT22;3828;48.922;9.116;2022-12-07T15:37:00;4.20;99.90
7574;DHT22;3828;48.922;9.116;2022-12-07T15:39:26;4.20;99.90
7574;DHT22;3828;48.922;9.116;2022-12-07T15:41:53;4.20;99.90
7574;DHT22;3828;48.922;9.116;2022-12-07T15:44:20;4.10;99.90
7574;DHT22;3828;48.922;9.116;2022-12-07T15:47:06;4.10;99.90
7574;DHT22;3828;48.922;9.116;2022-12-07T15:49:32;4.10;99.90
7574;DHT22;3828;48.922;9.116;2022-12-07T15:51:59;4.10;99.90
7574;DHT22;3828;48.922;9.116;2022-12-07T15:54:28;4.10;99.90
7574;DHT22;3828;48.922;9.116;2022-12-07T15:56:56;4.10;99.90
7574;DHT22;3828;48.922;9.116;2022-12-07T15:59:25;4.10;99.90
7574;DHT22;3828;48.922;9.116;2022-12-07T16:01:52;5.20;99.90
7574;DHT22;3828;48.922;9.116;2022-12-07T16:04:20;4.40;99.90
7574;DHT22;3828;48.922;9.116;2022-12-07T16:06:47;4.10;99.90
7574;DHT22;3828;48.922;9.116;2022-12-07T16:09:15;4.10;99.90
7574;DHT22;3828;48.922;9.116;2022-12-07T16:11:42;4.10;99.90
7574;DHT22;3828;48.922;9.116;2022-12-07T16:14:08;4.10;99.90
7574;DHT22;3828;48.922;9.116;2022-12-07T16:16:35;4.10;99.90
7574;DHT22;3828;48.922;9.116;2022-12-07T16:19:02;5.30;99.90
7574;DHT22;3828;48.922;9.116;2022-12-07T16:21:30;6.90;99.90
7574;DHT22;3828;48.922;9.116;2022-12-07T16:23:57;6.70;99.90
7574;DHT22;3828;48.922;9.116;2022-12-07T16:26:24;4.00;99.90
7574;DHT22;3828;48.922;9.116;2022-12-07T16:28:52;3.90;99.90
7574;DHT22;3828;48.922;9.116;2022-12-07T16:31:22;3.80;99.90
7574;DHT22;3828;48.922;9.116;2022-12-07T16:33:49;3.80;99.90
7574;DHT22;3828;48.922;9.116;2022-12-07T16:36:17;3.70;99.90
7574;DHT22;3828;48.922;9.116;2022-12-07T16:38:45;3.70;99.90
7574;DHT22;3828;48.922;9.116;2022-12-07T16:41:12;3.70;99.90
7574;DHT22;3828;48.922;9.116;2022-12-07T16:43:39;3.60;99.90
7574;DHT22;3828;48.922;9.116;2022-12-07T16:46:07;3.60;99.90
7574;DHT22;3828;48.922;9.116;2022-12-07T16:48:36;3.60;99.90
7574;DHT22;3828;48.922;9.116;2022-12-07T16:51:04;5.50;99.90
7574;DHT22;3828;48.922;9.116;2022-12-07T16:53:31;3.50;99.90
7574;DHT22;3828;48.922;9.116;2022-12-07T16:55:59;3.50;99.90
7574;DHT22;3828;48.922;9.116;2022-12-07T16:58:26;3.50;99.90
7574;DHT22;3828;48.922;9.116;2022-12-07T17:00:52;3.60;99.90
7574;DHT22;3828;48.922;9.116;2022-12-07T17:03:19;3.60;99.90
7574;DHT22;3828;48.922;9.116;2022-12-07T17:05:46;3.60;99.90